createdAt,value
2017-12-09T00:02:09.038Z,57.60
2017-12-09T00:04:36.547Z,57.60
2017-12-09T00:07:04.060Z,57.70
2017-12-09T00:09:31.566Z,57.70
2017-12-09T00:11:59.070Z,57.80
2017-12-09T00:14:26.581Z,57.80
2017-12-09T00:16:54.075Z,57.80
2017-12-09T00:19:21.607Z,57.60
2017-12-09T00:21:49.110Z,57.60
2017-12-09T00:24:16.647Z,57.60
2017-12-09T00:26:44.140Z,57.60
2017-12-09T00:29:11.647Z,57.50
2017-12-09T00:31:39.146Z,57.40
2017-12-09T00:34:07.430Z,57.50
2017-12-09T00:36:34.923Z,57.50
2017-12-09T00:39:02.438Z,57.50
2017-12-09T00:41:29.938Z,57.40
2017-12-09T00:43:58.214Z,57.20
2017-12-09T00:46:26.470Z,57.20
2017-12-09T00:48:54.782Z,57.30
2017-12-09T00:51:22.282Z,57.20
2017-12-09T00:53:49.805Z,57.10
2017-12-09T00:56:17.314Z,57.10
2017-12-09T00:58:44.811Z,57.20
2017-12-09T01:01:12.322Z,57.40
2017-12-09T01:03:39.840Z,57.40
2017-12-09T01:06:07.354Z,57.40
2017-12-09T01:08:35.010Z,57.30
2017-12-09T01:11:03.311Z,57.20
2017-12-09T01:13:30.829Z,57.10
2017-12-09T01:16:10.373Z,57.10
2017-12-09T01:18:49.602Z,57.10
2017-12-09T01:21:17.106Z,57.00
2017-12-09T01:23:45.370Z,56.90
2017-12-09T01:26:12.878Z,56.80
2017-12-09T01:28:40.374Z,56.90
2017-12-09T01:31:07.898Z,56.80
2017-12-09T01:33:35.386Z,56.70
2017-12-09T01:36:02.878Z,56.70
2017-12-09T01:38:31.155Z,56.40
2017-12-09T01:40:59.401Z,56.90
2017-12-09T01:43:26.916Z,56.30
2017-12-09T01:45:54.426Z,56.30
2017-12-09T01:48:21.943Z,56.10
2017-12-09T01:50:49.438Z,55.90
2017-12-09T01:53:16.957Z,55.90
2017-12-09T01:55:44.498Z,55.90
2017-12-09T01:58:12.015Z,55.60
2017-12-09T02:00:39.530Z,55.70
2017-12-09T02:03:07.061Z,55.40
2017-12-09T02:05:34.558Z,55.30
2017-12-09T02:08:02.053Z,55.40
2017-12-09T02:10:29.558Z,55.60
2017-12-09T02:12:57.073Z,55.60
2017-12-09T02:15:24.581Z,55.60
2017-12-09T02:17:52.103Z,55.70
2017-12-09T02:20:20.378Z,55.50
2017-12-09T02:22:48.690Z,55.40
2017-12-09T02:25:16.942Z,55.10
2017-12-09T02:27:45.210Z,55.30
2017-12-09T02:30:12.762Z,55.20
2017-12-09T02:32:40.262Z,54.90
2017-12-09T02:35:07.749Z,55.10
2017-12-09T02:37:35.291Z,55.10
2017-12-09T02:40:02.804Z,55.00
2017-12-09T02:42:31.089Z,55.30
2017-12-09T02:44:59.363Z,55.40
2017-12-09T02:47:27.681Z,55.30
2017-12-09T02:49:55.158Z,55.30
2017-12-09T02:52:23.441Z,54.60
2017-12-09T02:54:50.938Z,54.50
2017-12-09T02:57:19.271Z,54.80
2017-12-09T02:59:46.769Z,54.70
2017-12-09T03:02:15.035Z,54.80
2017-12-09T03:04:42.542Z,54.70
2017-12-09T03:07:10.030Z,54.70
2017-12-09T03:09:37.538Z,54.70
2017-12-09T03:12:05.802Z,54.40
2017-12-09T03:14:34.074Z,54.40
2017-12-09T03:17:02.334Z,54.30
2017-12-09T03:19:29.846Z,54.20
2017-12-09T03:21:57.371Z,53.80
2017-12-09T03:24:25.665Z,53.90
2017-12-09T03:26:53.194Z,53.90
2017-12-09T03:29:20.681Z,53.90
2017-12-09T03:31:48.981Z,53.80
2017-12-09T03:34:16.474Z,53.80
2017-12-09T03:36:43.993Z,53.60
2017-12-09T03:39:11.490Z,53.60
2017-12-09T03:41:39.017Z,53.60
2017-12-09T03:44:06.519Z,53.50
2017-12-09T03:46:34.030Z,53.50
2017-12-09T03:49:01.513Z,53.70
2017-12-09T03:51:29.013Z,53.80
2017-12-09T03:53:57.270Z,53.80
2017-12-09T03:56:24.774Z,53.70
2017-12-09T03:58:53.025Z,54.30
2017-12-09T04:01:20.541Z,54.20
2017-12-09T04:03:48.058Z,54.50
2017-12-09T04:06:15.561Z,54.40
2017-12-09T04:08:43.083Z,53.90
2017-12-09T04:11:10.581Z,53.50
2017-12-09T04:13:38.101Z,53.40
2017-12-09T04:16:05.591Z,53.40
2017-12-09T04:18:33.106Z,53.10
2017-12-09T04:21:00.630Z,53.10
2017-12-09T04:23:28.149Z,53.30
2017-12-09T04:25:55.643Z,53.40
2017-12-09T04:28:23.146Z,53.60
2017-12-09T04:30:51.418Z,53.10
2017-12-09T04:33:19.685Z,53.20
2017-12-09T04:35:47.226Z,53.20
2017-12-09T04:38:14.730Z,53.10
2017-12-09T04:40:42.223Z,52.90
2017-12-09T04:43:09.730Z,52.10
2017-12-09T04:45:37.995Z,52.30
2017-12-09T04:48:05.497Z,52.30
2017-12-09T04:50:32.985Z,51.80
2017-12-09T04:53:00.493Z,51.80
2017-12-09T04:55:27.991Z,51.90
2017-12-09T04:57:55.538Z,51.90
2017-12-09T05:00:23.026Z,51.50
2017-12-09T05:02:50.530Z,51.60
2017-12-09T05:05:18.046Z,51.60
2017-12-09T05:07:45.537Z,51.20
2017-12-09T05:10:13.809Z,51.10
2017-12-09T05:12:42.066Z,51.10
2017-12-09T05:15:09.570Z,51.10
2017-12-09T05:17:37.077Z,51.20
2017-12-09T05:20:04.587Z,51.10
2017-12-09T05:22:32.082Z,51.90
2017-12-09T05:24:59.605Z,52.10
2017-12-09T05:27:27.094Z,51.50
2017-12-09T05:29:54.614Z,51.60
2017-12-09T05:32:22.102Z,51.50
2017-12-09T05:34:49.607Z,51.40
2017-12-09T05:37:17.862Z,51.70
2017-12-09T05:39:45.361Z,51.70
2017-12-09T05:42:12.853Z,51.60
2017-12-09T05:44:40.362Z,51.30
2017-12-09T05:47:08.622Z,51.00
2017-12-09T05:49:36.138Z,50.90
2017-12-09T05:52:03.668Z,51.40
2017-12-09T05:54:31.922Z,51.50
2017-12-09T05:56:59.434Z,51.40
2017-12-09T05:59:26.922Z,51.60
2017-12-09T06:01:54.435Z,51.80
2017-12-09T06:04:21.976Z,51.40
2017-12-09T06:06:49.459Z,51.10
2017-12-09T06:09:16.954Z,51.30
2017-12-09T06:11:44.459Z,51.50
2017-12-09T06:14:11.950Z,51.60
2017-12-09T06:16:39.462Z,51.40
2017-12-09T06:19:07.742Z,51.20
2017-12-09T06:21:36.014Z,51.20
2017-12-09T06:24:04.283Z,51.40
2017-12-09T06:26:31.790Z,51.30
2017-12-09T06:28:59.308Z,50.90
2017-12-09T06:31:27.582Z,51.10
2017-12-09T06:33:55.846Z,50.80
2017-12-09T06:36:23.359Z,50.70
2017-12-09T06:38:50.857Z,50.70
2017-12-09T06:41:20.153Z,50.70
2017-12-09T06:43:47.694Z,50.50
2017-12-09T06:46:15.258Z,50.80
2017-12-09T06:48:43.518Z,51.10
2017-12-09T06:51:11.020Z,51.00
2017-12-09T06:53:38.534Z,51.00
2017-12-09T06:56:06.029Z,51.00
2017-12-09T06:58:33.550Z,51.30
2017-12-09T07:01:01.071Z,51.50
2017-12-09T07:03:28.618Z,51.60
2017-12-09T07:05:56.107Z,51.90
2017-12-09T07:08:23.614Z,52.30
2017-12-09T07:10:51.117Z,52.40
2017-12-09T07:13:19.397Z,52.50
2017-12-09T07:15:47.658Z,52.40
2017-12-09T07:18:15.935Z,52.20
2017-12-09T07:20:44.208Z,51.30
2017-12-09T07:23:12.482Z,50.90
2017-12-09T07:25:40.766Z,51.10
2017-12-09T07:28:09.057Z,51.30
2017-12-09T07:30:36.557Z,51.30
2017-12-09T07:33:04.851Z,51.40
2017-12-09T07:35:33.866Z,50.50
2017-12-09T07:38:02.143Z,50.90
2017-12-09T07:40:29.629Z,50.80
2017-12-09T07:42:57.146Z,51.40
2017-12-09T07:45:24.634Z,50.90
2017-12-09T07:47:52.167Z,50.50
2017-12-09T07:50:19.670Z,50.70
2017-12-09T07:52:47.926Z,50.80
2017-12-09T07:55:16.227Z,50.50
2017-12-09T07:57:43.726Z,50.40
2017-12-09T08:00:11.230Z,50.50
2017-12-09T08:02:38.741Z,50.40
2017-12-09T08:05:06.254Z,50.30
2017-12-09T08:07:33.760Z,50.60
2017-12-09T08:10:01.278Z,50.40
2017-12-09T08:12:28.765Z,50.20
2017-12-09T08:14:56.299Z,49.70
2017-12-09T08:17:23.798Z,49.80
2017-12-09T08:19:51.304Z,49.40
2017-12-09T08:22:18.797Z,49.40
2017-12-09T08:24:46.326Z,49.80
2017-12-09T08:27:13.822Z,50.00
2017-12-09T08:29:41.444Z,50.10
2017-12-09T08:32:08.934Z,50.00
2017-12-09T08:34:36.459Z,49.80
2017-12-09T08:37:03.974Z,49.90
2017-12-09T08:39:31.470Z,49.00
2017-12-09T08:41:59.744Z,49.50
2017-12-09T08:44:28.026Z,49.60
2017-12-09T08:46:55.538Z,49.60
2017-12-09T08:49:23.066Z,49.30
2017-12-09T08:51:50.614Z,49.80
2017-12-09T08:54:18.133Z,49.30
2017-12-09T08:56:45.721Z,49.50
2017-12-09T08:59:13.253Z,49.60
2017-12-09T09:01:40.773Z,49.30
2017-12-09T09:04:08.270Z,48.80
2017-12-09T09:06:35.788Z,48.90
2017-12-09T09:09:03.294Z,48.90
2017-12-09T09:11:30.805Z,48.70
2017-12-09T09:13:58.326Z,48.80
2017-12-09T09:16:26.610Z,48.80
2017-12-09T09:18:54.881Z,48.40
2017-12-09T09:21:22.428Z,48.40
2017-12-09T09:23:49.917Z,48.50
2017-12-09T09:26:17.434Z,48.40
2017-12-09T09:28:44.959Z,47.40
2017-12-09T09:31:12.476Z,47.40
2017-12-09T09:33:40.750Z,47.40
2017-12-09T09:36:08.254Z,47.40
2017-12-09T09:38:35.785Z,47.40
2017-12-09T09:41:04.048Z,47.10
2017-12-09T09:43:31.566Z,47.00
2017-12-09T09:45:59.066Z,46.80
2017-12-09T09:48:27.334Z,47.60
2017-12-09T09:50:54.834Z,47.40
2017-12-09T09:53:22.363Z,47.60
2017-12-09T09:55:50.638Z,46.90
2017-12-09T09:58:18.958Z,46.90
2017-12-09T10:00:46.454Z,46.80
2017-12-09T10:03:14.750Z,45.80
2017-12-09T10:05:43.028Z,45.20
2017-12-09T10:08:11.421Z,45.20
2017-12-09T10:10:39.683Z,45.20
2017-12-09T10:13:07.956Z,45.20
2017-12-09T10:15:36.266Z,44.90
2017-12-09T10:18:03.777Z,44.80
2017-12-09T10:20:31.264Z,43.50
2017-12-09T10:22:58.755Z,43.20
2017-12-09T10:25:26.266Z,43.50
2017-12-09T10:27:54.537Z,42.20
2017-12-09T10:30:22.857Z,41.80
2017-12-09T10:32:50.351Z,41.80
2017-12-09T10:35:17.885Z,41.50
2017-12-09T10:37:45.381Z,41.70
2017-12-09T10:40:12.894Z,42.10
2017-12-09T10:42:40.385Z,42.50
2017-12-09T10:45:07.893Z,42.90
2017-12-09T10:47:35.409Z,43.40
2017-12-09T10:50:02.920Z,43.70
2017-12-09T10:52:30.430Z,43.90
2017-12-09T10:54:57.942Z,44.30
2017-12-09T10:57:25.437Z,43.80
2017-12-09T10:59:52.962Z,43.40
2017-12-09T11:02:20.496Z,42.70
2017-12-09T11:04:48.042Z,42.80
2017-12-09T11:07:16.329Z,43.00
2017-12-09T11:09:44.605Z,42.80
2017-12-09T11:12:12.865Z,42.90
2017-12-09T11:14:40.445Z,42.80
2017-12-09T11:17:08.709Z,42.40
2017-12-09T11:19:36.986Z,42.90
2017-12-09T11:22:05.274Z,43.80
2017-12-09T11:24:33.536Z,44.00
2017-12-09T11:27:01.038Z,44.00
2017-12-09T11:29:28.531Z,44.10
2017-12-09T11:31:56.053Z,44.20
2017-12-09T11:34:23.550Z,44.30
2017-12-09T11:36:51.858Z,44.30
2017-12-09T11:39:20.114Z,42.90
2017-12-09T11:41:47.647Z,42.80
2017-12-09T11:44:15.158Z,42.90
2017-12-09T11:46:43.435Z,41.30
2017-12-09T11:49:11.715Z,41.70
2017-12-09T11:51:40.022Z,41.50
2017-12-09T11:54:07.526Z,41.40
2017-12-09T11:56:35.045Z,42.10
2017-12-09T11:59:02.546Z,41.90
2017-12-09T12:01:30.050Z,42.50
2017-12-09T12:03:58.554Z,42.50
2017-12-09T12:06:26.073Z,41.60
2017-12-09T12:08:54.381Z,40.40
2017-12-09T12:11:21.946Z,40.30
2017-12-09T12:13:49.439Z,40.30
2017-12-09T12:16:16.970Z,40.40
2017-12-09T12:18:44.475Z,40.30
2017-12-09T12:21:12.726Z,40.30
2017-12-09T12:23:40.253Z,40.30
2017-12-09T12:26:07.738Z,40.50
2017-12-09T12:28:35.259Z,40.70
2017-12-09T12:31:02.761Z,41.20
2017-12-09T12:33:30.277Z,41.30
2017-12-09T12:35:57.793Z,40.40
2017-12-09T12:38:25.302Z,40.40
2017-12-09T12:40:52.797Z,40.10
2017-12-09T12:43:20.314Z,40.20
2017-12-09T12:45:47.805Z,39.80
2017-12-09T12:48:15.343Z,39.70
2017-12-09T12:50:42.824Z,40.00
2017-12-09T12:53:10.354Z,40.20
2017-12-09T12:55:37.907Z,40.60
2017-12-09T12:58:05.499Z,40.00
2017-12-09T13:00:32.974Z,39.90
2017-12-09T13:03:00.502Z,39.80
2017-12-09T13:05:28.001Z,39.20
2017-12-09T13:07:55.534Z,39.10
2017-12-09T13:10:23.033Z,39.10
2017-12-09T13:12:51.321Z,39.90
2017-12-09T13:15:19.583Z,39.40
2017-12-09T13:17:47.833Z,39.30
2017-12-09T13:20:15.334Z,39.20
2017-12-09T13:22:42.846Z,39.30
2017-12-09T13:25:10.358Z,39.10
2017-12-09T13:27:37.914Z,39.30
2017-12-09T13:30:05.426Z,40.00
2017-12-09T13:32:32.942Z,40.10
2017-12-09T13:35:00.454Z,40.30
2017-12-09T13:37:27.939Z,40.10
2017-12-09T13:39:56.222Z,41.00
2017-12-09T13:42:24.507Z,40.90
2017-12-09T13:44:52.022Z,40.80
2017-12-09T13:47:19.516Z,40.10
2017-12-09T13:49:47.791Z,40.80
2017-12-09T13:52:15.295Z,40.70
2017-12-09T13:54:42.805Z,41.30
2017-12-09T13:57:11.068Z,41.80
2017-12-09T13:59:38.581Z,41.70
2017-12-09T14:02:06.128Z,41.60
2017-12-09T14:04:33.633Z,41.70
2017-12-09T14:07:01.120Z,41.70
2017-12-09T14:09:29.421Z,40.90
2017-12-09T14:11:56.970Z,40.90
2017-12-09T14:14:24.462Z,40.70
2017-12-09T14:16:52.018Z,40.80
2017-12-09T14:19:19.522Z,40.70
2017-12-09T14:21:47.828Z,39.00
2017-12-09T14:24:15.326Z,38.90
2017-12-09T14:26:42.848Z,39.40
2017-12-09T14:29:10.350Z,39.60
2017-12-09T14:31:37.868Z,39.80
2017-12-09T14:34:05.400Z,39.00
2017-12-09T14:36:32.918Z,39.60
2017-12-09T14:39:00.410Z,40.20
2017-12-09T14:41:27.909Z,40.40
2017-12-09T14:43:55.434Z,40.60
2017-12-09T14:46:23.705Z,41.20
2017-12-09T14:48:51.983Z,41.60
2017-12-09T14:51:19.493Z,41.50
2017-12-09T14:53:46.986Z,41.50
2017-12-09T14:56:14.511Z,41.60
2017-12-09T14:58:42.027Z,41.60
2017-12-09T15:01:10.321Z,42.20
2017-12-09T15:03:37.821Z,41.60
2017-12-09T15:06:05.334Z,42.00
2017-12-09T15:08:32.845Z,42.30
2017-12-09T15:11:00.365Z,42.50
2017-12-09T15:13:27.872Z,42.70
2017-12-09T15:15:55.379Z,43.00
2017-12-09T15:18:22.925Z,43.30
2017-12-09T15:20:50.416Z,43.30
2017-12-09T15:23:17.929Z,43.70
2017-12-09T15:25:46.208Z,43.50
2017-12-09T15:28:14.496Z,43.50
2017-12-09T15:30:42.758Z,43.80
2017-12-09T15:33:10.291Z,43.70
2017-12-09T15:35:37.777Z,44.10
2017-12-09T15:38:06.050Z,44.70
2017-12-09T15:40:34.319Z,45.20
2017-12-09T15:43:02.605Z,45.60
2017-12-09T15:45:30.882Z,45.00
2017-12-09T15:47:59.162Z,45.00
2017-12-09T15:50:27.421Z,44.90
2017-12-09T15:52:54.947Z,44.90
2017-12-09T15:55:22.433Z,45.10
2017-12-09T15:57:50.708Z,45.70
2017-12-09T16:00:19.023Z,45.60
2017-12-09T16:02:46.549Z,45.80
2017-12-09T16:05:14.073Z,46.00
2017-12-09T16:07:41.606Z,46.20
2017-12-09T16:10:09.099Z,46.20
2017-12-09T16:12:36.606Z,46.30
2017-12-09T16:15:04.888Z,46.90
2017-12-09T16:17:33.198Z,47.00
2017-12-09T16:20:00.713Z,47.00
2017-12-09T16:22:28.977Z,47.30
2017-12-09T16:24:56.490Z,47.30
2017-12-09T16:27:24.028Z,47.50
2017-12-09T16:29:51.537Z,47.60
2017-12-09T16:32:19.030Z,47.70
2017-12-09T16:34:47.326Z,47.90
2017-12-09T16:37:14.850Z,47.80
2017-12-09T16:39:42.385Z,47.90
2017-12-09T16:42:09.885Z,47.90
2017-12-09T16:44:38.191Z,47.90
2017-12-09T16:47:05.710Z,47.90
2017-12-09T16:49:33.218Z,48.10
2017-12-09T16:52:00.715Z,48.20
2017-12-09T16:54:28.224Z,48.20
2017-12-09T16:56:55.750Z,48.30
2017-12-09T16:59:23.258Z,48.30
2017-12-09T17:01:50.801Z,48.80
2017-12-09T17:04:18.333Z,48.30
2017-12-09T17:06:46.642Z,48.10
2017-12-09T17:09:14.166Z,48.00
2017-12-09T17:11:41.684Z,48.00
2017-12-09T17:14:09.169Z,48.10
2017-12-09T17:16:36.698Z,48.10
2017-12-09T17:19:04.189Z,48.20
2017-12-09T17:21:31.694Z,48.20
2017-12-09T17:23:59.189Z,47.90
2017-12-09T17:26:26.717Z,48.00
2017-12-09T17:28:54.214Z,48.20
2017-12-09T17:31:21.726Z,48.30
2017-12-09T17:33:49.246Z,48.10
2017-12-09T17:36:16.774Z,48.20
2017-12-09T17:38:44.315Z,48.30
2017-12-09T17:41:11.820Z,48.30
2017-12-09T17:43:39.330Z,48.40
2017-12-09T17:46:06.838Z,48.80
2017-12-09T17:48:34.321Z,48.30
2017-12-09T17:51:01.846Z,48.10
2017-12-09T17:53:29.341Z,48.20
2017-12-09T17:55:57.650Z,48.30
2017-12-09T17:58:25.135Z,48.30
2017-12-09T18:00:52.673Z,48.30
2017-12-09T18:03:20.187Z,48.20
2017-12-09T18:05:48.450Z,48.20
2017-12-09T18:08:15.970Z,48.10
2017-12-09T18:10:43.498Z,48.40
2017-12-09T18:13:11.015Z,48.30
2017-12-09T18:15:38.569Z,48.40
2017-12-09T18:18:06.070Z,48.50
2017-12-09T18:20:34.322Z,48.30
2017-12-09T18:23:01.830Z,48.30
2017-12-09T18:25:29.360Z,48.10
2017-12-09T18:27:57.670Z,48.30
2017-12-09T18:30:25.162Z,48.20
2017-12-09T18:32:52.674Z,49.00
2017-12-09T18:35:20.162Z,48.60
2017-12-09T18:37:47.667Z,48.60
2017-12-09T18:40:15.946Z,48.70
2017-12-09T18:42:43.478Z,48.70
2017-12-09T18:45:10.996Z,48.70
2017-12-09T18:47:38.513Z,48.50
2017-12-09T18:50:06.806Z,49.10
2017-12-09T18:52:35.167Z,48.50
2017-12-09T18:55:02.658Z,48.50
2017-12-09T18:57:30.154Z,48.60
2017-12-09T18:59:57.657Z,48.60
2017-12-09T19:02:25.976Z,48.70
2017-12-09T19:04:53.495Z,48.60
2017-12-09T19:07:21.772Z,48.40
2017-12-09T19:09:49.320Z,48.30
2017-12-09T19:12:16.806Z,48.30
2017-12-09T19:14:44.326Z,48.30
2017-12-09T19:17:11.830Z,48.30
2017-12-09T19:19:39.333Z,48.40
2017-12-09T19:22:06.829Z,48.40
2017-12-09T19:24:35.102Z,48.20
2017-12-09T19:27:03.828Z,48.20
2017-12-09T19:29:31.342Z,48.10
2017-12-09T19:31:59.614Z,48.20
2017-12-09T19:34:27.910Z,48.20
2017-12-09T19:36:55.626Z,48.10
2017-12-09T19:39:23.934Z,47.90
2017-12-09T19:41:52.220Z,47.90
2017-12-09T19:44:19.725Z,47.80
2017-12-09T19:46:47.217Z,47.60
2017-12-09T19:49:14.732Z,47.70
2017-12-09T19:51:42.252Z,47.30
2017-12-09T19:54:09.755Z,47.30
2017-12-09T19:56:37.278Z,47.50
2017-12-09T19:59:05.551Z,47.80
2017-12-09T20:01:33.826Z,47.80
2017-12-09T20:04:01.376Z,47.70
2017-12-09T20:06:28.925Z,47.70
2017-12-09T20:08:56.414Z,47.70
2017-12-09T20:11:23.941Z,47.50
2017-12-09T20:13:51.460Z,47.60
2017-12-09T20:16:18.983Z,47.30
2017-12-09T20:18:48.467Z,47.90
2017-12-09T20:21:16.110Z,47.80
2017-12-09T20:23:43.671Z,47.70
2017-12-09T20:26:11.992Z,47.70
2017-12-09T20:28:40.273Z,47.40
2017-12-09T20:31:09.770Z,47.30
2017-12-09T20:33:38.079Z,47.60
2017-12-09T20:36:05.690Z,47.50
2017-12-09T20:38:34.102Z,47.40
2017-12-09T20:41:01.747Z,47.50
2017-12-09T20:43:30.015Z,47.10
2017-12-09T20:45:57.711Z,47.10
2017-12-09T20:48:25.217Z,47.20
2017-12-09T20:50:52.798Z,47.10
2017-12-09T20:53:21.110Z,47.70
2017-12-09T20:55:48.622Z,47.30
2017-12-09T20:58:16.114Z,46.80
2017-12-09T21:00:43.805Z,46.70
2017-12-09T21:03:11.460Z,46.70
2017-12-09T21:05:39.181Z,46.70
2017-12-09T21:08:07.476Z,46.40
2017-12-09T21:10:35.746Z,46.50
2017-12-09T21:13:04.014Z,46.30
2017-12-09T21:15:31.770Z,46.30
2017-12-09T21:18:00.278Z,46.40
2017-12-09T21:20:31.153Z,46.60
2017-12-09T21:22:59.430Z,46.50
2017-12-09T21:25:26.950Z,46.60
2017-12-09T21:27:55.227Z,46.60
2017-12-09T21:30:22.725Z,46.60
2017-12-09T21:32:50.247Z,46.60
2017-12-09T21:35:20.809Z,46.20
2017-12-09T21:37:48.313Z,46.20
2017-12-09T21:40:15.814Z,46.30
2017-12-09T21:42:43.326Z,46.40
2017-12-09T21:45:10.819Z,46.40
2017-12-09T21:47:39.089Z,46.10
2017-12-09T21:50:07.347Z,46.20
2017-12-09T21:52:35.649Z,46.10
2017-12-09T21:55:03.158Z,46.10
2017-12-09T21:57:30.712Z,46.00
2017-12-09T21:59:58.194Z,46.00
2017-12-09T22:02:25.763Z,45.90
2017-12-09T22:04:53.258Z,45.90
2017-12-09T22:07:20.756Z,45.80
2017-12-09T22:09:48.264Z,46.00
2017-12-09T22:12:15.791Z,46.10
2017-12-09T22:14:43.310Z,46.40
2017-12-09T22:17:12.127Z,46.20
2017-12-09T22:19:39.644Z,46.10
2017-12-09T22:22:07.156Z,46.20
2017-12-09T22:24:34.660Z,46.30
2017-12-09T22:27:02.150Z,46.20
2017-12-09T22:29:29.653Z,46.30
2017-12-09T22:31:57.918Z,46.40
2017-12-09T22:34:26.194Z,47.00
2017-12-09T22:36:54.468Z,46.60
2017-12-09T22:39:21.982Z,47.20
2017-12-09T22:41:49.474Z,46.60
2017-12-09T22:44:17.011Z,46.50
2017-12-09T22:46:44.531Z,46.50
2017-12-09T22:49:12.038Z,46.50
2017-12-09T22:51:39.574Z,46.50
2017-12-09T22:54:07.087Z,46.60
2017-12-09T22:56:35.347Z,46.60
2017-12-09T22:59:02.874Z,46.50
2017-12-09T23:01:30.366Z,46.40
2017-12-09T23:03:57.890Z,46.50
2017-12-09T23:06:25.419Z,45.70
2017-12-09T23:08:52.917Z,45.80
2017-12-09T23:11:20.434Z,45.90
2017-12-09T23:13:48.696Z,46.10
2017-12-09T23:16:16.229Z,46.00
2017-12-09T23:18:43.723Z,46.00
2017-12-09T23:21:12.023Z,46.10
2017-12-09T23:23:39.528Z,46.10
2017-12-09T23:26:07.056Z,46.00
2017-12-09T23:28:34.562Z,46.00
2017-12-09T23:31:02.113Z,46.00
2017-12-09T23:33:29.582Z,46.40
2017-12-09T23:35:57.106Z,46.20
2017-12-09T23:38:24.597Z,46.30
2017-12-09T23:40:52.109Z,46.30
2017-12-09T23:43:19.596Z,46.50
2017-12-09T23:45:47.107Z,45.90
2017-12-09T23:48:14.607Z,46.00
2017-12-09T23:50:42.114Z,46.10
2017-12-09T23:53:09.608Z,46.20
2017-12-09T23:55:37.134Z,46.30
2017-12-09T23:58:04.622Z,46.40
